Time;durP1;ratioP1;P1;durP2;ratioP2;P2;SDS_P1;SDS_P2;PMS_P1;PMS_P2;Temp;Humidity;BMP_temperature;BMP_pressure;BME280_temperature;BME280_humidity;BME280_pressure;Samples;Min_cycle;Max_cycle;Signal;HPM_P1;HPM_P2
2023/03/30 00:00:21;;;;;;;26.95;15.13;;;11.00;99.90;;;;;;5066699;28;20040;-78
2023/03/30 00:02:49;;;;;;;18.65;13.88;;;10.90;99.90;;;;;;5047748;28;20106;-78
2023/03/30 00:05:16;;;;;;;18.88;12.65;;;11.00;99.90;;;;;;5065842;28;20040;-80
2023/03/30 00:07:46;;;;;;;22.00;12.80;;;10.90;99.90;;;;;;5066535;28;20040;-79
2023/03/30 00:10:16;;;;;;;16.88;12.32;;;11.50;99.90;;;;;;5063324;28;20037;-79
2023/03/30 00:12:44;;;;;;;22.05;12.30;;;11.30;99.90;;;;;;5066570;28;20053;-78
2023/03/30 00:15:11;;;;;;;16.83;11.77;;;10.00;99.90;;;;;;5065387;28;20076;-79
2023/03/30 00:17:37;;;;;;;22.15;11.80;;;11.10;99.90;;;;;;5066333;28;20044;-79
2023/03/30 00:20:10;;;;;;;13.27;9.75;;;11.10;99.90;;;;;;5069125;28;20048;-79
2023/03/30 00:22:37;;;;;;;16.67;11.27;;;11.20;99.90;;;;;;5068030;28;20102;-79
2023/03/30 00:25:08;;;;;;;16.42;11.13;;;11.20;99.90;;;;;;5070634;28;20045;-79
2023/03/30 00:27:37;;;;;;;21.23;10.50;;;11.20;99.90;;;;;;5068833;28;20044;-79
2023/03/30 00:30:05;;;;;;;18.20;10.43;;;10.40;99.90;;;;;;5070505;28;20046;-79
2023/03/30 00:32:33;;;;;;;14.88;10.73;;;11.20;99.90;;;;;;5069591;28;20055;-79
2023/03/30 00:34:59;;;;;;;14.82;9.95;;;11.20;99.90;;;;;;5069541;28;20048;-79
2023/03/30 00:37:24;;;;;;;13.18;8.95;;;11.20;99.90;;;;;;5070257;28;20047;-79
2023/03/30 00:39:52;;;;;;;12.77;9.05;;;11.30;99.90;;;;;;5069170;28;20484;-79
2023/03/30 00:42:20;;;;;;;26.00;9.05;;;11.30;99.90;;;;;;5069281;28;20048;-79
2023/03/30 00:45:16;;;;;;;13.60;8.43;;;11.30;99.90;;;;;;5068347;28;20487;-79
2023/03/30 00:47:51;;;;;;;11.02;7.13;;;11.40;99.90;;;;;;5069830;28;20037;-79
2023/03/30 00:50:22;;;;;;;16.98;9.27;;;10.70;99.90;;;;;;5051660;28;20135;-79
2023/03/30 00:52:51;;;;;;;11.35;7.75;;;11.40;99.90;;;;;;5066632;28;20053;-79
2023/03/30 00:55:20;;;;;;;13.00;8.20;;;11.50;99.90;;;;;;5069810;28;20060;-79
2023/03/30 00:57:48;;;;;;;10.70;7.20;;;11.50;99.90;;;;;;5066789;28;20048;-80
2023/03/30 01:00:14;;;;;;;13.90;7.38;;;11.60;99.90;;;;;;5068553;28;20040;-80
2023/03/30 01:02:54;;;;;;;14.55;7.07;;;11.60;99.90;;;;;;5068863;28;20380;-80
2023/03/30 01:05:23;;;;;;;22.65;8.88;;;11.60;99.90;;;;;;5067553;28;20466;-79
2023/03/30 01:07:49;;;;;;;13.52;6.70;;;11.60;99.90;;;;;;5069695;28;20051;-80
2023/03/30 01:10:15;;;;;;;12.18;6.85;;;11.60;99.90;;;;;;5067909;28;20419;-79
2023/03/30 01:12:41;;;;;;;12.80;6.28;;;12.20;99.90;;;;;;5068078;28;20041;-80
2023/03/30 01:15:08;;;;;;;13.77;6.63;;;12.00;99.90;;;;;;5068555;28;20059;-80
2023/03/30 01:17:38;;;;;;;8.93;6.15;;;11.70;99.90;;;;;;5068926;28;20152;-80
2023/03/30 01:20:29;;;;;;;9.75;6.38;;;11.70;99.90;;;;;;5069372;28;20373;-80
2023/03/30 01:23:32;;;;;;;8.10;5.25;;;11.80;99.90;;;;;;5068218;28;20078;-80
2023/03/30 01:26:42;;;;;;;10.65;6.57;;;11.80;99.90;;;;;;5068017;28;20059;-80
2023/03/30 01:29:30;;;;;;;9.85;5.57;;;11.80;99.90;;;;;;5067565;28;20048;-80
2023/03/30 01:32:38;;;;;;;11.10;5.65;;;11.80;99.90;;;;;;5065054;28;20074;-79
2023/03/30 01:35:35;;;;;;;11.23;5.28;;;11.80;99.90;;;;;;5066903;28;20491;-80
2023/03/30 01:38:39;;;;;;;12.00;5.30;;;11.80;99.90;;;;;;5056468;28;20056;-80
2023/03/30 01:41:32;;;;;;;9.45;5.43;;;11.80;99.90;;;;;;5059055;28;20559;-80
2023/03/30 01:44:16;;;;;;;8.55;4.72;;;11.80;99.90;;;;;;5066544;28;20040;-80
2023/03/30 01:46:50;;;;;;;10.45;5.38;;;11.80;99.90;;;;;;5068175;28;20499;-80
2023/03/30 01:49:36;;;;;;;9.55;5.03;;;11.90;99.90;;;;;;5067471;28;20094;-80
2023/03/30 01:52:10;;;;;;;9.77;4.68;;;11.90;99.90;;;;;;5068230;28;20056;-80
2023/03/30 01:55:00;;;;;;;6.70;4.32;;;11.90;99.90;;;;;;5068877;28;20047;-80
2023/03/30 01:57:42;;;;;;;9.30;5.05;;;11.90;99.90;;;;;;5067554;28;20123;-81
2023/03/30 02:00:12;;;;;;;10.05;4.35;;;12.10;99.90;;;;;;5067970;28;20056;-80
2023/03/30 02:02:42;;;;;;;11.13;4.55;;;11.90;99.90;;;;;;5068174;28;20510;-80
2023/03/30 02:05:09;;;;;;;10.70;4.45;;;11.90;99.90;;;;;;5067313;28;20063;-80
2023/03/30 02:07:38;;;;;;;12.82;4.97;;;11.90;99.90;;;;;;5067745;28;20452;-80
2023/03/30 02:10:08;;;;;;;7.78;4.45;;;11.90;99.90;;;;;;5049447;28;20036;-80
2023/03/30 02:12:35;;;;;;;7.47;4.53;;;11.80;99.90;;;;;;5067255;28;20048;-79
2023/03/30 02:15:04;;;;;;;12.77;5.18;;;12.30;99.90;;;;;;5067255;28;20048;-80
2023/03/30 02:17:30;;;;;;;6.45;3.63;;;12.50;99.90;;;;;;5066818;28;20411;-81
2023/03/30 02:19:58;;;;;;;10.40;4.78;;;11.80;99.90;;;;;;5050053;28;20074;-80
2023/03/30 02:22:25;;;;;;;9.02;4.10;;;11.90;99.90;;;;;;5067884;28;20048;-81
2023/03/30 02:24:54;;;;;;;11.27;4.70;;;11.80;99.90;;;;;;5068421;28;20572;-81
2023/03/30 02:27:21;;;;;;;6.32;3.35;;;11.80;99.90;;;;;;5066570;28;20084;-80
2023/03/30 02:29:47;;;;;;;7.72;4.05;;;11.80;99.90;;;;;;5068426;28;20415;-81
2023/03/30 02:32:23;;;;;;;8.45;4.00;;;11.80;99.90;;;;;;5067130;28;20399;-80
2023/03/30 02:35:00;;;;;;;14.07;4.70;;;11.80;99.90;;;;;;5067557;28;20126;-80
2023/03/30 02:37:48;;;;;;;7.00;3.80;;;11.80;99.90;;;;;;5068005;28;20241;-81
2023/03/30 02:40:31;;;;;;;8.60;3.60;;;11.80;99.90;;;;;;5066425;28;20045;-80
2023/03/30 02:43:16;;;;;;;7.80;2.53;;;11.80;99.90;;;;;;5067477;28;20056;-80
2023/03/30 02:46:06;;;;;;;8.82;2.95;;;11.80;99.90;;;;;;5067483;28;20324;-80
2023/03/30 02:48:41;;;;;;;6.55;3.72;;;11.80;99.90;;;;;;5066271;28;20120;-81
2023/03/30 02:51:34;;;;;;;7.85;3.58;;;11.80;99.90;;;;;;5067736;28;20472;-80
2023/03/30 02:54:11;;;;;;;8.32;3.65;;;11.80;99.90;;;;;;5067436;28;20044;-81
2023/03/30 02:56:40;;;;;;;7.07;3.20;;;11.80;99.90;;;;;;5066655;28;20044;-80
2023/03/30 02:59:24;;;;;;;10.88;3.45;;;11.90;99.90;;;;;;5067701;28;20415;-80
2023/03/30 03:01:55;;;;;;;8.45;3.03;;;11.90;99.90;;;;;;5066241;28;20044;-80
2023/03/30 03:04:22;;;;;;;7.60;3.72;;;12.50;99.90;;;;;;5049616;28;20039;-80
2023/03/30 03:06:51;;;;;;;10.50;3.40;;;12.00;99.90;;;;;;5066858;28;20037;-80
2023/03/30 03:09:23;;;;;;;12.32;3.28;;;12.00;99.90;;;;;;5065509;28;20055;-80
2023/03/30 03:11:50;;;;;;;8.47;2.90;;;12.10;99.90;;;;;;5067519;28;20052;-80
2023/03/30 03:14:16;;;;;;;7.30;2.70;;;12.10;99.90;;;;;;5064730;28;20048;-79
2023/03/30 03:16:42;;;;;;;8.93;2.90;;;12.10;99.90;;;;;;5067295;28;20487;-79
2023/03/30 03:19:08;;;;;;;8.48;2.72;;;12.20;99.90;;;;;;5064435;28;20055;-79
2023/03/30 03:21:35;;;;;;;8.93;2.78;;;12.20;99.90;;;;;;5066858;28;20076;-79
2023/03/30 03:24:02;;;;;;;11.48;2.78;;;12.20;99.90;;;;;;5065217;28;20048;-78
2023/03/30 03:26:27;;;;;;;8.73;2.67;;;12.20;99.90;;;;;;5064891;28;20032;-79
2023/03/30 03:28:53;;;;;;;12.63;2.63;;;12.30;99.90;;;;;;5065849;28;20085;-80
2023/03/30 03:31:19;;;;;;;6.80;2.35;;;12.30;99.90;;;;;;5065620;28;20135;-80
2023/03/30 03:33:45;;;;;;;5.55;2.53;;;12.30;99.90;;;;;;5066699;28;20043;-80
2023/03/30 03:36:11;;;;;;;8.25;2.38;;;12.30;99.90;;;;;;5063855;28;20048;-79
2023/03/30 03:38:36;;;;;;;7.65;2.65;;;12.30;99.90;;;;;;5065236;28;20478;-79
2023/03/30 03:41:02;;;;;;;8.75;2.25;;;12.30;99.90;;;;;;5065894;28;20094;-79
2023/03/30 03:43:28;;;;;;;9.00;2.33;;;12.20;99.90;;;;;;5066103;28;20506;-79
2023/03/30 03:45:54;;;;;;;5.75;2.10;;;12.20;99.90;;;;;;5067000;28;20112;-80
2023/03/30 03:48:22;;;;;;;6.15;2.40;;;12.20;99.90;;;;;;5065266;28;20083;-79
2023/03/30 03:50:56;;;;;;;8.35;2.70;;;12.20;99.90;;;;;;5066786;28;20044;-79
2023/03/30 03:53:24;;;;;;;6.78;2.60;;;12.10;99.90;;;;;;5063078;28;20106;-79
2023/03/30 03:55:51;;;;;;;6.30;2.10;;;12.20;99.90;;;;;;5065339;28;20502;-79
2023/03/30 03:58:17;;;;;;;10.57;2.33;;;12.10;99.90;;;;;;5064851;28;20041;-79
2023/03/30 04:00:43;;;;;;;8.00;2.83;;;12.20;99.90;;;;;;5047686;28;20131;-79
2023/03/30 04:03:11;;;;;;;7.45;2.78;;;12.70;99.90;;;;;;5066883;28;20140;-79
2023/03/30 04:05:37;;;;;;;7.45;2.67;;;12.20;99.90;;;;;;5064804;28;20051;-79
2023/03/30 04:08:03;;;;;;;8.15;2.47;;;12.20;99.90;;;;;;5066731;28;20396;-79
2023/03/30 04:10:29;;;;;;;10.80;2.35;;;12.30;99.90;;;;;;5065365;28;20403;-79
2023/03/30 04:12:58;;;;;;;7.68;2.80;;;12.20;99.90;;;;;;5064820;28;20059;-80
2023/03/30 04:15:24;;;;;;;7.50;2.78;;;12.20;99.90;;;;;;5065837;28;20135;-80
2023/03/30 04:17:56;;;;;;;12.25;2.78;;;12.20;99.90;;;;;;5047921;28;20071;-79
2023/03/30 04:20:27;;;;;;;7.68;1.95;;;12.30;99.90;;;;;;5065007;28;20055;-78
2023/03/30 04:22:53;;;;;;;6.32;2.33;;;12.20;99.90;;;;;;5064838;28;20036;-79
2023/03/30 04:25:27;;;;;;;7.47;1.80;;;12.20;99.90;;;;;;5048568;28;20101;-79
2023/03/30 04:27:54;;;;;;;6.38;2.25;;;12.20;99.90;;;;;;5063758;28;20041;-79
2023/03/30 04:30:23;;;;;;;9.93;2.15;;;12.40;99.90;;;;;;5064693;28;20507;-79
2023/03/30 04:33:01;;;;;;;12.38;2.88;;;12.20;99.90;;;;;;5066061;28;20052;-79
2023/03/30 04:35:29;;;;;;;13.18;2.47;;;12.20;99.90;;;;;;5063238;28;20045;-79
2023/03/30 04:37:56;;;;;;;4.38;1.48;;;12.20;99.90;;;;;;5066458;28;21665;-79
2023/03/30 04:40:23;;;;;;;6.45;1.48;;;12.20;99.90;;;;;;5064540;28;20441;-79
2023/03/30 04:42:49;;;;;;;8.30;1.95;;;12.20;99.90;;;;;;5065886;28;20080;-78
2023/03/30 04:45:17;;;;;;;7.22;1.50;;;12.20;99.90;;;;;;5063821;28;20075;-81
2023/03/30 04:47:45;;;;;;;10.95;2.55;;;12.20;99.90;;;;;;5063946;28;20099;-79
2023/03/30 04:50:11;;;;;;;7.80;1.52;;;12.20;99.90;;;;;;5065018;28;20056;-81
2023/03/30 04:52:37;;;;;;;9.05;2.00;;;12.20;99.90;;;;;;5063247;28;20072;-81
2023/03/30 04:55:03;;;;;;;9.43;1.63;;;12.20;99.90;;;;;;5066489;28;20471;-80
2023/03/30 04:57:29;;;;;;;5.00;1.30;;;12.30;99.90;;;;;;5064696;28;20535;-81
2023/03/30 04:59:55;;;;;;;10.35;1.98;;;12.20;99.90;;;;;;5064236;28;20155;-80
2023/03/30 05:02:21;;;;;;;13.20;2.30;;;12.30;99.90;;;;;;5064125;28;20045;-80
2023/03/30 05:04:47;;;;;;;7.90;1.48;;;12.30;99.90;;;;;;5066185;28;20063;-84
2023/03/30 05:07:13;;;;;;;6.25;1.77;;;12.40;99.90;;;;;;5069584;28;20056;-80
2023/03/30 05:09:39;;;;;;;9.68;1.92;;;12.40;99.90;;;;;;5068052;28;20078;-81
2023/03/30 05:12:05;;;;;;;9.07;1.55;;;12.40;99.90;;;;;;5051195;28;20220;-80
2023/03/30 05:14:30;;;;;;;8.02;1.95;;;12.40;99.90;;;;;;5049547;28;20090;-81
2023/03/30 05:16:57;;;;;;;7.70;1.95;;;12.40;99.90;;;;;;5069401;28;20048;-81
2023/03/30 05:19:23;;;;;;;10.18;1.55;;;12.40;99.90;;;;;;5067075;28;20052;-81
2023/03/30 05:21:49;;;;;;;9.07;1.48;;;12.40;99.90;;;;;;5067412;28;20050;-81
2023/03/30 05:24:15;;;;;;;9.30;2.20;;;12.40;99.90;;;;;;5068827;28;20384;-81
2023/03/30 05:26:41;;;;;;;15.88;2.80;;;12.40;99.90;;;;;;5068485;28;20448;-80
2023/03/30 05:29:07;;;;;;;9.77;2.10;;;12.40;99.90;;;;;;5069267;28;20083;-81
2023/03/30 05:31:33;;;;;;;9.68;1.85;;;12.40;99.90;;;;;;5067360;28;20051;-80
2023/03/30 05:33:58;;;;;;;7.70;1.70;;;13.00;99.90;;;;;;5069360;28;20431;-81
2023/03/30 05:36:24;;;;;;;11.30;1.88;;;12.50;99.90;;;;;;5068020;28;20044;-80
2023/03/30 05:38:50;;;;;;;14.57;2.45;;;12.50;99.90;;;;;;5067179;28;20056;-80
2023/03/30 05:41:16;;;;;;;12.95;2.17;;;12.50;99.90;;;;;;5068522;28;20040;-81
2023/03/30 05:43:42;;;;;;;8.35;1.63;;;12.50;99.90;;;;;;5067914;28;20052;-81
2023/03/30 05:46:07;;;;;;;11.68;1.90;;;12.50;99.90;;;;;;5069189;28;20052;-80
2023/03/30 05:48:33;;;;;;;12.98;2.53;;;12.50;99.90;;;;;;5065930;28;20557;-80
2023/03/30 05:50:59;;;;;;;12.18;2.88;;;12.50;99.90;;;;;;5050852;28;20055;-79
2023/03/30 05:53:25;;;;;;;5.15;2.00;;;12.40;99.90;;;;;;5066970;28;20048;-80
2023/03/30 05:55:51;;;;;;;8.38;1.85;;;12.40;99.90;;;;;;5065836;28;20156;-79
2023/03/30 05:58:16;;;;;;;16.48;2.72;;;12.50;99.90;;;;;;5066054;28;20044;-83
2023/03/30 06:00:43;;;;;;;10.63;2.60;;;12.40;99.90;;;;;;5065030;28;20044;-78
2023/03/30 06:03:12;;;;;;;7.93;2.00;;;12.40;99.90;;;;;;5067695;28;20435;-79
2023/03/30 06:05:40;;;;;;;14.18;2.30;;;12.50;99.90;;;;;;5066177;28;20127;-78
2023/03/30 06:08:07;;;;;;;8.77;2.70;;;12.50;99.90;;;;;;5067203;28;20546;-78
2023/03/30 06:10:33;;;;;;;10.35;2.65;;;12.50;99.90;;;;;;5066133;28;20491;-78
2023/03/30 06:12:59;;;;;;;7.38;1.85;;;12.50;99.90;;;;;;5066676;28;20458;-78
2023/03/30 06:15:26;;;;;;;9.73;2.42;;;12.50;99.90;;;;;;5065842;28;20041;-78
2023/03/30 06:17:52;;;;;;;10.82;2.28;;;12.50;99.90;;;;;;5065762;28;20083;-77
2023/03/30 06:20:20;;;;;;;8.52;1.92;;;12.50;99.90;;;;;;5067294;28;20106;-77
2023/03/30 06:22:46;;;;;;;7.15;2.38;;;12.60;99.90;;;;;;5065822;28;20121;-77
2023/03/30 06:25:13;;;;;;;10.93;2.78;;;12.60;99.90;;;;;;5065275;28;20131;-77
2023/03/30 06:27:39;;;;;;;11.18;2.53;;;12.60;99.90;;;;;;5065672;28;20040;-77
2023/03/30 06:30:08;;;;;;;12.35;2.47;;;12.60;99.90;;;;;;5066220;28;20079;-77
2023/03/30 06:32:34;;;;;;;12.57;2.25;;;12.60;99.90;;;;;;5066779;28;20056;-78
2023/03/30 06:35:02;;;;;;;10.05;2.53;;;12.60;99.90;;;;;;5064653;28;20044;-77
2023/03/30 06:37:31;;;;;;;6.40;2.33;;;12.60;99.90;;;;;;5066513;28;20040;-79
2023/03/30 06:39:57;;;;;;;9.63;2.42;;;12.60;99.90;;;;;;5064328;28;20177;-77
2023/03/30 06:42:26;;;;;;;9.57;2.72;;;12.60;99.90;;;;;;5066427;28;20958;-77
2023/03/30 06:44:51;;;;;;;9.80;2.65;;;12.70;99.90;;;;;;5064362;28;20503;-77
2023/03/30 06:47:18;;;;;;;9.50;2.67;;;12.70;99.90;;;;;;5065879;28;20126;-76
2023/03/30 06:49:44;;;;;;;11.57;2.17;;;12.70;99.90;;;;;;5066452;28;20127;-77
2023/03/30 06:52:11;;;;;;;11.05;2.30;;;12.70;99.90;;;;;;5063950;28;20201;-77
2023/03/30 06:54:37;;;;;;;10.20;2.83;;;12.70;99.90;;;;;;5066667;28;20067;-77
2023/03/30 06:57:03;;;;;;;7.05;2.25;;;12.80;99.90;;;;;;5063629;28;20044;-76
2023/03/30 06:59:29;;;;;;;10.57;2.50;;;12.70;99.90;;;;;;5064424;28;20562;-76
2023/03/30 07:01:54;;;;;;;7.78;2.10;;;12.80;99.90;;;;;;5065378;28;20124;-77
2023/03/30 07:04:20;;;;;;;11.73;2.55;;;12.80;99.90;;;;;;5063928;28;20040;-77
2023/03/30 07:06:46;;;;;;;8.75;1.77;;;12.80;99.90;;;;;;5064656;28;20051;-77
2023/03/30 07:09:12;;;;;;;10.63;2.38;;;12.80;99.90;;;;;;5065306;28;20517;-76
2023/03/30 07:11:38;;;;;;;9.27;2.00;;;12.80;99.90;;;;;;5066093;28;20465;-77
2023/03/30 07:14:04;;;;;;;10.50;2.95;;;12.80;99.90;;;;;;5046727;28;20083;-77
2023/03/30 07:16:30;;;;;;;11.77;3.25;;;12.80;99.90;;;;;;5064704;28;20067;-77
2023/03/30 07:18:56;;;;;;;11.85;2.47;;;12.90;99.90;;;;;;5047325;28;20048;-77
2023/03/30 07:21:22;;;;;;;15.63;2.30;;;12.90;99.90;;;;;;5063800;28;20451;-77
2023/03/30 07:23:47;;;;;;;18.80;2.40;;;12.90;99.90;;;;;;5047485;28;20050;-78
2023/03/30 07:26:13;;;;;;;21.17;2.83;;;12.90;99.90;;;;;;5046696;28;20052;-76
2023/03/30 07:28:39;;;;;;;19.27;2.38;;;13.00;99.90;;;;;;5065252;28;20044;-77
2023/03/30 07:31:12;;;;;;;13.30;2.95;;;12.90;99.90;;;;;;5063576;28;20076;-77
2023/03/30 07:33:38;;;;;;;22.17;3.08;;;12.90;99.90;;;;;;5064175;28;20087;-76
2023/03/30 07:36:05;;;;;;;22.35;3.20;;;12.90;99.90;;;;;;5064218;28;20037;-77
2023/03/30 07:38:32;;;;;;;13.32;2.00;;;13.00;99.90;;;;;;5065334;28;20128;-77
2023/03/30 07:40:58;;;;;;;16.48;2.85;;;12.90;99.90;;;;;;5065446;28;20045;-77
2023/03/30 07:43:23;;;;;;;15.50;2.38;;;12.90;99.90;;;;;;5062983;28;20049;-77
2023/03/30 07:45:49;;;;;;;14.75;2.17;;;12.90;99.90;;;;;;5064233;28;20121;-76
2023/03/30 07:48:15;;;;;;;21.17;2.70;;;12.80;99.90;;;;;;5063967;28;20048;-78
2023/03/30 07:50:41;;;;;;;17.23;2.70;;;12.80;99.90;;;;;;5047136;28;20534;-77
2023/03/30 07:53:06;;;;;;;24.63;4.18;;;12.80;99.90;;;;;;5062528;28;20056;-77
2023/03/30 07:55:32;;;;;;;17.70;2.78;;;12.70;99.90;;;;;;5047389;28;20052;-78
2023/03/30 07:57:58;;;;;;;13.20;2.58;;;12.70;99.90;;;;;;5063843;28;20476;-78
2023/03/30 08:00:24;;;;;;;20.00;2.92;;;12.60;99.90;;;;;;5046421;28;20040;-78
2023/03/30 08:02:50;;;;;;;20.33;3.45;;;12.60;99.90;;;;;;5064095;28;20055;-78
2023/03/30 08:05:16;;;;;;;20.83;3.25;;;12.50;99.90;;;;;;5062503;28;20047;-78
2023/03/30 08:07:43;;;;;;;17.92;2.67;;;12.50;99.90;;;;;;5063875;28;20076;-78
2023/03/30 08:10:10;;;;;;;25.67;3.65;;;12.50;99.90;;;;;;5064020;28;20052;-78
2023/03/30 08:12:36;;;;;;;14.63;3.17;;;11.90;99.90;;;;;;5063516;28;20044;-78
2023/03/30 08:15:02;;;;;;;18.75;3.50;;;12.30;99.90;;;;;;5063287;28;20465;-78
2023/03/30 08:17:28;;;;;;;19.02;2.78;;;12.30;99.90;;;;;;5063564;28;20097;-78
2023/03/30 08:19:55;;;;;;;17.70;2.88;;;12.20;99.90;;;;;;5063900;28;20484;-78
2023/03/30 08:22:21;;;;;;;19.48;3.90;;;12.20;99.90;;;;;;5063825;28;20044;-78
2023/03/30 08:24:47;;;;;;;20.63;3.33;;;12.20;99.90;;;;;;5063484;28;20140;-78
2023/03/30 08:27:13;;;;;;;17.42;2.90;;;12.20;99.90;;;;;;5064042;28;20128;-78
2023/03/30 08:29:39;;;;;;;19.75;3.55;;;12.20;99.90;;;;;;5064633;28;20044;-77
2023/03/30 08:32:05;;;;;;;22.92;3.17;;;12.20;99.90;;;;;;5064413;28;20094;-77
2023/03/30 08:34:31;;;;;;;20.02;3.22;;;12.20;99.90;;;;;;5063004;28;20128;-77
2023/03/30 08:36:57;;;;;;;18.95;3.50;;;12.20;99.90;;;;;;5064894;28;20127;-77
2023/03/30 08:39:23;;;;;;;26.40;4.00;;;12.20;99.90;;;;;;5062364;28;20056;-78
2023/03/30 08:42:09;;;;;;;16.35;3.00;;;12.10;99.90;;;;;;5067950;28;20210;-77
2023/03/30 08:44:35;;;;;;;34.67;4.70;;;12.00;99.90;;;;;;5046013;28;20536;-77
2023/03/30 08:47:03;;;;;;;25.42;3.47;;;12.00;99.90;;;;;;5067161;28;20044;-77
2023/03/30 08:49:34;;;;;;;21.63;4.20;;;12.00;99.90;;;;;;5067384;28;20052;-77
2023/03/30 08:52:03;;;;;;;17.35;3.85;;;12.00;99.90;;;;;;5066793;28;20416;-79
2023/03/30 08:54:30;;;;;;;25.63;4.32;;;12.00;99.90;;;;;;5067281;28;20091;-79
2023/03/30 08:57:22;;;;;;;19.02;3.25;;;11.90;99.90;;;;;;5066091;28;20480;-79
2023/03/30 09:00:16;;;;;;;26.02;4.07;;;11.90;99.90;;;;;;5050010;28;20063;-79
2023/03/30 09:02:47;;;;;;;23.58;3.78;;;11.90;99.90;;;;;;5067635;28;20492;-78
2023/03/30 09:05:21;;;;;;;26.50;4.25;;;11.90;99.90;;;;;;5067574;28;20056;-78
2023/03/30 09:08:00;;;;;;;22.85;4.25;;;11.90;99.90;;;;;;5068408;28;20047;-78
2023/03/30 09:10:29;;;;;;;27.55;3.72;;;12.00;99.90;;;;;;5066295;28;20045;-78
2023/03/30 09:12:58;;;;;;;25.58;4.60;;;12.10;99.90;;;;;;5067763;28;20098;-78
2023/03/30 09:15:26;;;;;;;26.17;4.30;;;12.20;99.90;;;;;;5050698;28;20045;-78
2023/03/30 09:17:59;;;;;;;31.50;5.78;;;12.30;99.90;;;;;;5067072;28;20639;-77
2023/03/30 09:20:37;;;;;;;21.38;4.80;;;13.60;99.90;;;;;;5066611;28;20051;-78
2023/03/30 09:23:06;;;;;;;23.95;4.15;;;12.60;99.90;;;;;;5067369;28;20048;-78
2023/03/30 09:25:43;;;;;;;20.38;3.53;;;12.80;99.90;;;;;;5066131;28;20067;-77
2023/03/30 09:28:15;;;;;;;21.50;4.60;;;12.90;99.90;;;;;;5066999;28;20048;-78
2023/03/30 09:30:48;;;;;;;17.93;3.20;;;12.90;99.90;;;;;;5065760;28;20092;-78
2023/03/30 09:33:20;;;;;;;19.83;2.97;;;13.00;99.90;;;;;;5066540;28;20048;-78
2023/03/30 09:36:10;;;;;;;21.05;3.75;;;13.00;99.90;;;;;;5065150;28;20056;-78
2023/03/30 09:38:40;;;;;;;17.58;3.97;;;13.00;99.90;;;;;;5047931;28;20163;-77
2023/03/30 09:41:36;;;;;;;19.77;3.28;;;13.00;99.90;;;;;;5066370;28;20056;-77
2023/03/30 09:44:02;;;;;;;20.15;3.45;;;13.10;99.90;;;;;;5064919;28;20045;-78
2023/03/30 09:46:28;;;;;;;18.17;2.55;;;13.10;99.90;;;;;;5049381;28;20217;-78
2023/03/30 09:49:10;;;;;;;21.65;3.38;;;13.10;99.90;;;;;;5065410;28;20101;-78
2023/03/30 09:51:51;;;;;;;15.00;2.87;;;13.20;99.90;;;;;;5066007;28;20048;-78
2023/03/30 09:54:17;;;;;;;18.38;2.55;;;13.30;99.90;;;;;;5065965;28;20295;-79
2023/03/30 09:56:46;;;;;;;20.73;2.97;;;13.30;99.90;;;;;;5064628;28;20057;-78
2023/03/30 09:59:44;;;;;;;22.02;3.10;;;13.40;99.90;;;;;;5067212;28;20127;-78
2023/03/30 10:02:16;;;;;;;22.35;4.13;;;13.40;99.90;;;;;;5038071;28;20052;-78
2023/03/30 10:04:57;;;;;;;16.88;2.50;;;13.40;99.90;;;;;;5048725;28;20050;-78
2023/03/30 10:07:41;;;;;;;11.95;1.80;;;13.30;99.90;;;;;;5067508;28;20083;-78
2023/03/30 10:10:19;;;;;;;16.45;3.13;;;13.20;99.90;;;;;;5048538;28;20052;-78
2023/03/30 10:12:48;;;;;;;20.65;2.67;;;13.10;99.90;;;;;;5065224;28;20060;-78
2023/03/30 10:15:18;;;;;;;17.75;3.53;;;13.00;99.90;;;;;;5067116;28;20122;-78
2023/03/30 10:17:47;;;;;;;12.93;2.40;;;13.00;99.90;;;;;;5064559;28;20083;-78
2023/03/30 10:20:28;;;;;;;16.95;2.55;;;13.00;99.90;;;;;;5065829;28;20075;-78
2023/03/30 10:22:55;;;;;;;17.70;2.70;;;13.10;99.90;;;;;;5064857;28;20630;-78
2023/03/30 10:25:26;;;;;;;21.00;2.40;;;13.10;99.90;;;;;;5065312;28;20127;-78
2023/03/30 10:27:55;;;;;;;14.27;2.28;;;13.20;99.90;;;;;;5066864;28;20047;-78
2023/03/30 10:30:24;;;;;;;17.65;2.60;;;13.30;99.90;;;;;;5066156;28;20036;-77
2023/03/30 10:32:52;;;;;;;14.73;1.98;;;13.40;99.90;;;;;;5065608;28;20084;-78
2023/03/30 10:35:24;;;;;;;17.35;2.50;;;13.40;99.90;;;;;;5063927;28;20107;-78
2023/03/30 10:37:53;;;;;;;15.17;2.50;;;13.30;99.90;;;;;;5066415;28;20088;-77
2023/03/30 10:40:20;;;;;;;11.02;2.22;;;13.30;99.90;;;;;;5066262;28;20053;-78
2023/03/30 10:42:54;;;;;;;19.05;3.20;;;13.40;99.90;;;;;;5064430;28;20440;-78
2023/03/30 10:45:27;;;;;;;21.67;3.03;;;13.40;99.90;;;;;;5065178;28;20052;-77
2023/03/30 10:48:10;;;;;;;18.73;3.10;;;13.40;99.90;;;;;;5065262;28;20048;-78
2023/03/30 10:51:00;;;;;;;18.35;3.00;;;13.40;99.90;;;;;;5066474;28;20398;-78
2023/03/30 10:53:41;;;;;;;24.33;3.78;;;13.50;99.90;;;;;;5064499;28;20052;-78
2023/03/30 10:56:29;;;;;;;13.90;2.58;;;13.60;99.90;;;;;;5063963;28;20052;-77
2023/03/30 10:59:37;;;;;;;18.75;3.25;;;13.60;99.90;;;;;;5065145;28;20407;-78
2023/03/30 11:02:37;;;;;;;20.30;3.55;;;13.60;99.90;;;;;;5066059;28;20048;-77
2023/03/30 11:05:11;;;;;;;27.88;4.10;;;13.60;99.90;;;;;;5064811;28;20060;-77
2023/03/30 11:07:50;;;;;;;19.73;2.67;;;13.60;99.90;;;;;;5064291;28;20550;-78
2023/03/30 11:10:28;;;;;;;22.02;3.45;;;13.60;99.90;;;;;;5064964;28;20041;-78
2023/03/30 11:13:04;;;;;;;20.70;3.58;;;13.60;99.90;;;;;;5046988;28;20500;-78
2023/03/30 11:15:39;;;;;;;16.00;3.85;;;13.50;99.90;;;;;;5066185;28;20059;-78
2023/03/30 11:18:08;;;;;;;17.67;3.03;;;13.60;99.90;;;;;;5063098;28;20044;-78
2023/03/30 11:20:55;;;;;;;25.52;4.50;;;13.60;99.90;;;;;;5065722;28;20079;-78
2023/03/30 11:23:39;;;;;;;21.40;2.90;;;13.60;99.90;;;;;;5064105;28;20056;-78
2023/03/30 11:26:10;;;;;;;26.13;3.67;;;13.60;99.90;;;;;;5063335;28;20052;-78
2023/03/30 11:29:00;;;;;;;22.20;3.00;;;13.70;99.90;;;;;;5064380;28;20055;-78
2023/03/30 11:31:31;;;;;;;23.83;4.40;;;13.80;99.90;;;;;;5063548;28;20608;-78
2023/03/30 11:34:07;;;;;;;24.08;3.67;;;13.90;99.90;;;;;;5065329;28;20076;-78
2023/03/30 11:36:42;;;;;;;19.85;3.28;;;14.00;99.90;;;;;;5064248;28;20128;-78
2023/03/30 11:39:15;;;;;;;21.40;4.65;;;13.90;99.90;;;;;;5064913;28;20116;-77
2023/03/30 11:41:51;;;;;;;24.63;3.78;;;13.90;99.90;;;;;;5065584;28;20163;-78
2023/03/30 11:44:17;;;;;;;28.88;3.90;;;13.90;99.90;;;;;;5064388;28;20040;-79
2023/03/30 11:47:12;;;;;;;21.38;4.05;;;13.90;99.90;;;;;;5064965;28;20047;-76
2023/03/30 11:49:44;;;;;;;22.20;3.22;;;13.90;99.90;;;;;;5065780;28;20058;-76
2023/03/30 11:52:35;;;;;;;17.98;3.72;;;14.10;99.90;;;;;;5062734;28;20053;-77
2023/03/30 11:55:17;;;;;;;19.48;3.40;;;14.20;99.90;;;;;;5064920;28;20041;-76
2023/03/30 11:58:08;;;;;;;23.50;3.35;;;14.10;99.90;;;;;;5065321;28;20044;-77
2023/03/30 12:01:09;;;;;;;21.23;3.03;;;14.20;99.90;;;;;;5064113;28;20090;-79
2023/03/30 12:03:49;;;;;;;24.92;3.75;;;14.20;99.90;;;;;;5065228;28;20040;-79
2023/03/30 12:06:44;;;;;;;20.10;3.92;;;14.30;99.90;;;;;;5065065;28;20045;-79
2023/03/30 12:09:24;;;;;;;18.70;3.33;;;14.40;99.90;;;;;;5064179;28;20055;-79
2023/03/30 12:12:09;;;;;;;27.05;3.53;;;14.40;99.90;;;;;;5063631;28;20060;-79
2023/03/30 12:15:11;;;;;;;17.63;3.55;;;14.40;99.90;;;;;;5062905;28;20047;-79
2023/03/30 12:17:52;;;;;;;22.88;3.45;;;14.50;99.90;;;;;;5062534;28;20084;-79
2023/03/30 12:20:23;;;;;;;23.30;3.33;;;14.60;99.90;;;;;;5065322;28;20455;-79
2023/03/30 12:23:08;;;;;;;18.65;3.28;;;14.70;99.90;;;;;;5062398;28;20051;-79
2023/03/30 12:25:53;;;;;;;18.70;4.30;;;14.80;99.90;;;;;;5063750;28;20049;-79
2023/03/30 12:28:23;;;;;;;15.68;3.33;;;14.90;99.90;;;;;;5064494;28;20057;-79
2023/03/30 12:30:56;;;;;;;24.77;3.58;;;14.90;99.90;;;;;;5063678;28;20066;-79
2023/03/30 12:33:25;;;;;;;;;;;15.00;99.90;;;;;;5065218;28;20048;-79
2023/03/30 12:35:55;;;;;;;18.40;3.58;;;15.10;99.90;;;;;;5062629;28;19921;-79
2023/03/30 12:38:24;;;;;;;21.20;3.42;;;15.10;99.90;;;;;;5064897;28;20047;-79
2023/03/30 12:41:02;;;;;;;17.38;3.72;;;15.00;99.90;;;;;;5065002;28;20084;-79
2023/03/30 12:43:53;;;;;;;14.05;2.50;;;15.00;99.90;;;;;;5062544;28;20102;-77
2023/03/30 12:46:48;;;;;;;12.43;3.05;;;15.00;99.90;;;;;;5063260;28;20052;-78
2023/03/30 12:49:33;;;;;;;16.00;2.78;;;15.00;99.90;;;;;;5064837;28;20223;-77
2023/03/30 12:52:28;;;;;;;18.83;3.42;;;14.90;99.90;;;;;;5064045;28;20055;-77
2023/03/30 12:55:16;;;;;;;20.15;3.13;;;15.00;99.90;;;;;;5064619;28;20511;-77
2023/03/30 12:58:08;;;;;;;20.25;3.30;;;15.10;99.90;;;;;;5064891;28;20052;-77
2023/03/30 13:00:53;;;;;;;15.75;2.55;;;15.20;99.90;;;;;;5063979;28;20091;-77
2023/03/30 13:03:36;;;;;;;23.17;3.58;;;15.30;99.90;;;;;;5063417;28;20049;-77
2023/03/30 13:06:04;;;;;;;22.88;3.80;;;15.40;99.90;;;;;;5064050;28;20511;-77